Surface/Precipitation History
02/28/2015 12:19  to  3/1/2015 12:19
Change End Date:
Date/Time
(MST)
Sf
Temp Chem Water Layer Surface Precipitation
Sf Sub Frz Factor Pct Depth IcePct Cond Salin Type Intens Accum Rate
03/01/2015 12:11 Dry 52.9F 26F - - - - - 0 mhos 3 None None - -
03/01/2015 12:03 Dry 52.2F 26F - - - - - 0 mhos 4 None None - -
03/01/2015 12:01 Dry 52.0F 26F - - - - - 0 mhos 5 None None - -
03/01/2015 11:53 Dry 51.1F 26F - - - - - 0 mhos 7 None None - -
03/01/2015 11:43 Dry 49.6F 26F - - - - - 0 mhos 9 None None - -
03/01/2015 11:41 Dry 49.8F 26F - - - - - 0 mhos 10 None None - -
03/01/2015 11:33 Dry 48.4F 26F - - - - - 0 mhos 13 None None - -
03/01/2015 11:31 Dry 48.4F 26F - - - - - 0 mhos 14 None None - -
03/01/2015 11:23 Dry 46.8F 26F - - - - - 0 mhos 17 None None - -
03/01/2015 11:13 Dry 45.7F 26F - - - - - 0 mhos 22 None None - -
03/01/2015 11:11 Dry 45.0F 26F - - - - - 0 mhos 23 None None - -
03/01/2015 11:03 Dry 43.9F 26F - - - - - 0 mhos 28 None None - -
03/01/2015 11:01 Dry 43.3F 26F - - - - - 0 mhos 29 None None - -
03/01/2015 10:53 Dry 42.1F 26F - - - - - 0 mhos 31 None None - -
03/01/2015 10:43 Dry 39.9F 26F - - - - - 0 mhos 36 None None - -
Date/Time
(MST)
Sf
Temp Chem Water Layer Surface Precipitation
Sf Sub Frz Factor Pct Depth IcePct Cond Salin Type Intens Accum Rate
03/01/2015 10:41 Dry 39.7F 26F - - - - - 0 mhos 38 None None - -
03/01/2015 10:33 Dry 38.7F 26F - - - - - 1 mhos 56 None None - -
03/01/2015 10:31 Dry 38.1F 26F - - - - - 1 mhos 49 None None - -
03/01/2015 10:23 Dry 36.5F 26F - - - - - 0 mhos 45 None None - -
03/01/2015 10:12 Dry 34.7F 26F - - - - - 1 mhos 57 None None - -
03/01/2015 10:11 Dry 34.7F 26F - - - - - 1 mhos 66 None None - -
03/01/2015 10:02 Wet 32.5F 26F 32F 5 0% 0.00 in 0% 1 mhos 51 None None - -
03/01/2015 10:01 Ice Warning 31.8F 26F 32F 5 0% - 87% 1 mhos 53 None None - -
03/01/2015 09:52 Ice Warning 30.4F 26F 32F 10 0% - 98% 1 mhos 61 None None - -
03/01/2015 09:42 Ice Warning 28.0F 26F 32F 20 0% - 99% 1 mhos 78 None None - -
03/01/2015 09:32 Ice Warning 25.9F 26F 32F 50 0% - 99% 1 mhos 99 None None - -
03/01/2015 09:31 Ice Warning 25.7F 26F 32F 55 0% - 99% 1 mhos 99 None None - -
03/01/2015 09:22 Ice Warning 23.7F 26F 32F 65 0% - 99% 1 mhos 120 None None - -
03/01/2015 09:12 Ice Warning 21.4F 27F 32F 70 0% - 99% 1 mhos 145 None None - -
03/01/2015 09:02 Ice Warning 18.9F 27F 32F 85 1% - 99% 1 mhos 175 None None - -
Date/Time
(MST)
Sf
Temp Chem Water Layer Surface Precipitation
Sf Sub Frz Factor Pct Depth IcePct Cond Salin Type Intens Accum Rate
03/01/2015 09:01 Ice Warning 18.7F 27F 32F 85 1% - 99% 1 mhos 177 None None - -
03/01/2015 08:52 Ice Warning 16.5F 27F 32F 85 1% - 99% 1 mhos 209 None None - -
03/01/2015 08:42 Ice Warning 14.4F 27F 32F 95 1% - 99% 1 mhos 245 None None - -
03/01/2015 08:41 Ice Warning 14.2F 27F 32F 90 1% - 99% 1 mhos 247 None None - -
03/01/2015 08:32 Ice Warning 12.6F 27F 32F 95 1% - 99% 1 mhos 276 None None - -
03/01/2015 08:22 Ice Warning 10.9F 27F 32F 95 1% - 99% 1 mhos 308 None None - -
03/01/2015 08:12 Ice Warning 9.5F 27F 32F 95 1% - 99% 1 mhos 336 None None - -
03/01/2015 08:11 Ice Warning 9.3F 27F 32F 95 1% - 99% 1 mhos 340 None None - -
03/01/2015 08:02 Ice Warning 8.4F 27F 32F 95 1% - 99% 1 mhos 362 None None - -
03/01/2015 08:01 Ice Warning 8.1F 27F 32F 95 1% - 99% 0 mhos 364 None None - -
03/01/2015 07:52 Ice Warning 7.0F 27F 32F 95 1% - 99% 0 mhos 389 None None - -
03/01/2015 07:42 Ice Warning 6.3F 27F 32F 95 1% - 99% 0 mhos 402 None None - -
03/01/2015 07:41 Ice Warning 6.1F 27F 32F 95 1% - 99% 0 mhos 405 None None - -
03/01/2015 07:32 Ice Warning 5.5F 28F 32F 95 1% - 99% 0 mhos 420 None None - -
03/01/2015 07:31 Ice Warning 5.5F 28F 32F 95 1% - 99% 0 mhos 418 None None - -
Date/Time
(MST)
Sf
Temp Chem Water Layer Surface Precipitation
Sf Sub Frz Factor Pct Depth IcePct Cond Salin Type Intens Accum Rate
03/01/2015 07:22 Ice Warning 5.4F 28F 32F 95 1% - 99% 0 mhos 421 None None - -
03/01/2015 07:12 Ice Warning 5.4F 28F 32F 95 1% - 99% 0 mhos 415 None None - -
03/01/2015 07:02 Ice Warning 5.0F 28F 32F 95 1% - 99% 0 mhos 418 None None - -
03/01/2015 07:01 Ice Warning 5.0F 28F 32F 95 1% - 99% 0 mhos 417 None None - -
03/01/2015 06:52 Ice Warning 4.8F 28F 32F 95 1% - 99% 0 mhos 421 None None - -
03/01/2015 06:42 Ice Warning 5.2F 28F 32F 95 1% - 99% 0 mhos 410 None None - -
03/01/2015 06:32 Ice Warning 5.2F 28F 32F 95 1% - 99% 0 mhos 409 None None - -
03/01/2015 06:31 Ice Warning 5.2F 28F 32F 95 1% - 99% 0 mhos 406 None None - -
03/01/2015 06:22 Ice Warning 5.5F 28F 32F 95 1% - 99% 0 mhos 399 None None - -
03/01/2015 06:12 Ice Warning 5.4F 28F 32F 95 1% - 99% 0 mhos 401 None None - -
03/01/2015 06:02 Ice Warning 5.7F 28F 32F 95 1% - 99% 0 mhos 389 None None - -
03/01/2015 06:01 Ice Warning 5.5F 28F 32F 95 1% - 99% 0 mhos 391 None None - -
03/01/2015 05:51 Ice Warning 5.7F 28F 32F 95 1% - 99% 0 mhos 386 None None - -
03/01/2015 05:41 Ice Warning 5.9F 28F 32F 95 1% - 99% 0 mhos 381 None None - -
03/01/2015 05:31 Ice Warning 6.3F 29F 32F 95 1% - 99% 0 mhos 374 None None - -
Date/Time
(MST)
Sf
Temp Chem Water Layer Surface Precipitation
Sf Sub Frz Factor Pct Depth IcePct Cond Salin Type Intens Accum Rate
03/01/2015 05:31 Ice Warning 6.4F 29F 32F 95 1% - 99% 0 mhos 369 None None - -
03/01/2015 05:21 Ice Warning 6.4F 29F 32F 95 1% - 99% 0 mhos 364 None None - -
03/01/2015 05:11 Ice Warning 6.4F 29F 32F 95 1% - 99% 0 mhos 363 None None - -
03/01/2015 05:01 Ice Warning 6.6F 29F 32F 95 1% - 99% 0 mhos 360 None None - -
03/01/2015 05:01 Ice Warning 6.6F 29F 32F 95 1% - 99% 0 mhos 360 None None - -
03/01/2015 04:51 Ice Warning 7.0F 29F 32F 95 1% - 99% 0 mhos 352 None None - -
03/01/2015 04:41 Ice Warning 7.2F 29F 32F 95 1% - 99% 0 mhos 346 None None - -
03/01/2015 04:31 Ice Warning 7.5F 29F 32F 95 1% - 99% 0 mhos 336 None None - -
03/01/2015 04:21 Ice Warning 7.7F 29F 32F 95 1% - 99% 0 mhos 330 None None - -
03/01/2015 04:11 Ice Warning 8.1F 29F 32F 95 1% - 99% 0 mhos 323 None None - -
03/01/2015 04:03 Ice Warning 8.4F 29F 32F 95 1% - 99% 0 mhos 317 None None - -
03/01/2015 04:01 Ice Warning 8.4F 29F 32F 95 1% - 99% 0 mhos 312 None None - -
03/01/2015 03:51 Ice Warning 8.4F 29F 32F 95 1% - 99% 0 mhos 312 None None - -
03/01/2015 03:41 Ice Warning 8.6F 29F 32F 95 1% - 99% 0 mhos 305 None None - -
03/01/2015 03:31 Ice Warning 9.0F 29F 32F 95 1% - 99% 0 mhos 299 None None - -
Date/Time
(MST)
Sf
Temp Chem Water Layer Surface Precipitation
Sf Sub Frz Factor Pct Depth IcePct Cond Salin Type Intens Accum Rate
03/01/2015 03:21 Ice Warning 9.1F 29F 32F 95 1% - 99% 0 mhos 296 None None - -
03/01/2015 03:11 Ice Warning 9.3F 29F 32F 95 1% - 99% 0 mhos 291 None None - -
03/01/2015 03:01 Ice Warning 9.5F 30F 32F 95 1% - 99% 0 mhos 285 None None - -
03/01/2015 03:01 Ice Warning 9.5F 30F 32F 95 1% - 99% 0 mhos 286 None None - -
03/01/2015 02:51 Ice Warning 9.7F 30F 32F 95 1% - 99% 0 mhos 281 None None - -
03/01/2015 02:41 Ice Warning 10.2F 30F 32F 95 1% - 99% 0 mhos 272 None None - -
03/01/2015 02:31 Ice Warning 10.4F 30F 32F 95 1% - 99% 0 mhos 267 None None - -
03/01/2015 02:20 Ice Warning 10.6F 30F 32F 95 1% - 99% 0 mhos 262 None None - -
03/01/2015 02:10 Ice Warning 10.6F 30F 32F 95 1% - 99% 0 mhos 259 None None - -
03/01/2015 02:02 Ice Warning 10.9F 30F 32F 95 1% - 99% 0 mhos 254 None None - -
03/01/2015 02:00 Ice Warning 10.9F 30F 32F 95 1% - 99% 0 mhos 255 None None - -
03/01/2015 01:50 Ice Warning 11.3F 30F 32F 95 1% - 99% 0 mhos 248 None None - -
03/01/2015 01:40 Ice Warning 11.5F 30F 32F 95 1% - 99% 0 mhos 243 None None - -
03/01/2015 01:31 Ice Warning 11.7F 30F 32F 95 1% - 99% 0 mhos 241 None None - -
03/01/2015 01:30 Ice Warning 11.7F 30F 32F 95 1% - 99% 0 mhos 241 None None - -
Date/Time
(MST)
Sf
Temp Chem Water Layer Surface Precipitation
Sf Sub Frz Factor Pct Depth IcePct Cond Salin Type Intens Accum Rate
03/01/2015 01:20 Ice Warning 12.0F 30F 32F 95 1% - 99% 0 mhos 236 None None - -
03/01/2015 01:10 Ice Warning 12.4F 30F 32F 95 1% - 99% 0 mhos 229 None None - -
03/01/2015 01:01 Ice Warning 12.6F 30F 32F 95 1% - 99% 0 mhos 226 None None - -
03/01/2015 01:00 Ice Warning 12.7F 30F 32F 95 1% - 99% 0 mhos 223 None None - -
03/01/2015 00:50 Ice Warning 12.9F 30F 32F 95 1% - 99% 0 mhos 221 None None - -
03/01/2015 00:40 Ice Warning 13.1F 30F 32F 95 1% - 99% 0 mhos 217 None None - -
03/01/2015 00:31 Ice Warning 13.3F 30F 32F 95 1% - 99% 0 mhos 214 None None - -
03/01/2015 00:30 Ice Warning 13.3F 30F 32F 95 1% - 99% 0 mhos 214 None None - -
03/01/2015 00:20 Ice Warning 13.6F 30F 32F 95 1% - 99% 0 mhos 206 None None - -
03/01/2015 00:11 Ice Warning 14.0F 30F 32F 95 1% - 99% 0 mhos 203 None None - -
03/01/2015 00:10 Ice Warning 14.0F 30F 32F 95 1% - 99% 0 mhos 203 None None - -
03/01/2015 00:00 Ice Warning 14.4F 30F 32F 95 1% - 99% 0 mhos 194 None None - -
02/28/2015 23:57 Ice Warning 14.2F 30F 32F 95 1% - 99% 0 mhos 195 None None - -
02/28/2015 23:50 Ice Warning 14.2F 30F 32F 95 1% - 99% 0 mhos 195 None None - -
02/28/2015 23:40 Ice Warning 14.5F 30F 32F 95 1% - 99% 0 mhos 188 None None - -
Date/Time
(MST)
Sf
Temp Chem Water Layer Surface Precipitation
Sf Sub Frz Factor Pct Depth IcePct Cond Salin Type Intens Accum Rate
02/28/2015 23:31 Ice Warning 14.7F 30F 32F 95 1% - 99% 0 mhos 186 None None - -
02/28/2015 23:30 Ice Warning 14.7F 30F 32F 95 1% - 99% 0 mhos 186 None None - -
02/28/2015 23:20 Ice Warning 15.1F 30F 32F 95 1% - 99% 0 mhos 179 None None - -
02/28/2015 23:10 Ice Warning 15.4F 30F 32F 95 1% - 99% 0 mhos 172 None None - -
02/28/2015 23:01 Ice Warning 15.6F 30F 32F 95 1% - 99% 0 mhos 169 None None - -
02/28/2015 23:00 Ice Warning 15.6F 30F 32F 95 1% - 99% 0 mhos 169 None None - -
02/28/2015 22:50 Ice Warning 16.0F 30F 32F 95 1% - 99% 0 mhos 162 None None - -
02/28/2015 22:39 Ice Warning 16.2F 30F 32F 95 1% - 99% 0 mhos 156 None None - -
02/28/2015 22:31 Ice Warning 16.5F 30F 32F 95 0% - 99% 0 mhos 149 None None - -
02/28/2015 22:29 Ice Warning 16.3F 30F 32F 95 1% - 99% 0 mhos 150 None None - -
02/28/2015 22:19 Ice Warning 16.5F 30F 32F 95 0% - 99% 0 mhos 145 None None - -
02/28/2015 22:09 Ice Warning 17.1F 30F 32F 95 0% - 99% 0 mhos 139 None None - -
02/28/2015 22:01 Ice Warning 17.1F 30F 32F 95 0% - 99% 0 mhos 136 None None - -
02/28/2015 21:59 Ice Warning 17.2F 30F 32F 95 0% - 99% 0 mhos 135 None None - -
02/28/2015 21:49 Ice Warning 17.2F 30F 32F 95 0% - 99% 0 mhos 136 None None - -
Date/Time
(MST)
Sf
Temp Chem Water Layer Surface Precipitation
Sf Sub Frz Factor Pct Depth IcePct Cond Salin Type Intens Accum Rate
02/28/2015 21:39 Ice Warning 17.6F 30F 32F 95 0% - 99% 0 mhos 125 None None - -
02/28/2015 21:31 Ice Warning 18.1F 30F 32F 95 0% - 99% 0 mhos 122 None None - -
02/28/2015 21:29 Ice Warning 18.1F 30F 32F 95 0% - 99% 0 mhos 120 None None - -
02/28/2015 21:19 Ice Warning 18.5F 30F 32F 95 0% - 99% 0 mhos 119 None None - -
02/28/2015 21:09 Ice Warning 18.9F 30F 32F 95 0% - 99% 0 mhos 117 None None - -
02/28/2015 21:01 Ice Warning 19.2F 30F 32F 95 0% - 99% 0 mhos 108 None None - -
02/28/2015 20:59 Ice Warning 19.2F 30F 32F 95 0% - 99% 0 mhos 104 None None - -
02/28/2015 20:49 Ice Warning 19.9F 30F 32F 95 0% - 99% 0 mhos 104 None None - -
02/28/2015 20:39 Ice Warning 20.7F 30F 32F 95 0% - 99% 0 mhos 94 None None - -
02/28/2015 20:32 Ice Warning 21.4F 30F 32F 95 0% - 99% 0 mhos 89 None None - -
02/28/2015 20:29 Ice Warning 21.4F 30F 32F 95 0% - 99% 0 mhos 89 None None - -
02/28/2015 20:19 Ice Warning 22.3F 30F 32F 95 0% - 99% 0 mhos 82 None None - -
02/28/2015 20:09 Ice Warning 23.2F 30F 32F 95 0% - 99% 0 mhos 82 None None - -
02/28/2015 20:01 Ice Warning 23.7F 30F 32F 95 0% - 99% 0 mhos 76 None None - -
02/28/2015 19:59 Ice Warning 23.9F 29F 32F 95 0% - 99% 0 mhos 72 None None - -
Date/Time
(MST)
Sf
Temp Chem Water Layer Surface Precipitation
Sf Sub Frz Factor Pct Depth IcePct Cond Salin Type Intens Accum Rate
02/28/2015 19:49 Ice Warning 24.1F 29F 32F 95 0% - 99% 0 mhos 69 None None - -
02/28/2015 19:39 Ice Warning 24.4F 29F 32F 95 0% - 99% 0 mhos 77 None None - -
02/28/2015 19:31 Ice Warning 24.6F 29F 32F 95 0% - 99% 0 mhos 64 None None - -
02/28/2015 19:29 Ice Warning 24.6F 29F 32F 95 0% - 99% 0 mhos 69 None None - -
02/28/2015 19:19 Ice Warning 25.3F 29F 32F 95 0% - 99% 0 mhos 71 None None - -
02/28/2015 19:09 Ice Warning 25.3F 29F 32F 95 0% - 99% 0 mhos 64 None None - -
02/28/2015 19:01 Ice Warning 25.7F 29F 32F 95 0% - 100% 0 mhos 51 None None - -
02/28/2015 18:59 Ice Warning 25.5F 29F 32F 95 0% - 99% 0 mhos 58 None None - -
02/28/2015 18:49 Ice Warning 25.7F 29F 32F 95 0% - 100% 0 mhos 51 None None - -
02/28/2015 18:41 Ice Warning 25.7F 29F 32F 95 0% - 99% 0 mhos 63 None None - -
02/28/2015 18:38 Ice Warning 25.7F 29F 32F 95 0% - 99% 1 mhos 89 None None - -
02/28/2015 18:31 Ice Warning 25.9F 29F 32F 95 0% - 100% 0 mhos 51 None None - -
02/28/2015 18:28 Ice Warning 25.9F 29F 32F 95 0% - 100% 0 mhos 47 None None - -
02/28/2015 18:18 Ice Warning 26.2F 29F 32F 95 0% - 99% 1 mhos 88 None None - -
02/28/2015 18:11 Ice Warning 26.8F 29F 32F 95 0% - 99% 1 mhos 88 None None - -
Date/Time
(MST)
Sf
Temp Chem Water Layer Surface Precipitation
Sf Sub Frz Factor Pct Depth IcePct Cond Salin Type Intens Accum Rate
02/28/2015 18:08 Ice Warning 27.0F 29F 32F 95 0% - 99% 0 mhos 68 None None - -
02/28/2015 18:01 Ice Warning 28.0F 29F 32F 90 0% - 99% 1 mhos 81 None None - -
02/28/2015 17:58 Ice Warning 28.4F 29F 32F 90 0% - 99% 0 mhos 52 None None - -
02/28/2015 17:48 Ice Warning 29.5F 29F 32F 95 0% - 99% 0 mhos 39 None None - -
02/28/2015 17:41 Ice Warning 30.0F 29F 32F 90 0% - 99% 0 mhos 26 None None - -
02/28/2015 17:38 Ice Warning 30.6F 29F 32F 85 0% - 99% 0 mhos 20 None None - -
02/28/2015 17:31 Ice Warning 31.5F 29F 32F 75 0% - 99% 0 mhos 10 None None - -
02/28/2015 17:28 Ice Warning 31.6F 29F 32F 80 0% - 99% 0 mhos 9 None None - -
02/28/2015 17:18 Wet 34.0F 29F 32F 80 0% 0.20 in 0% 0 mhos 6 Yes - - -
02/28/2015 17:08 Wet 33.4F 29F 32F 70 0% 0.30 in 0% 0 mhos 3 None None - -
02/28/2015 17:01 Wet 34.2F 28F 32F 35 0% 0.20 in 0% 0 mhos 3 Yes - - -
02/28/2015 16:58 Wet 34.5F 28F 32F 15 0% 0.10 in 0% 0 mhos 2 None None - -
02/28/2015 16:48 Wet 35.4F 28F 32F 5 0% 0.00 in 0% 0 mhos 2 None None - -
02/28/2015 16:38 Wet 36.1F 28F 32F 5 0% 0.00 in 0% 0 mhos 2 None None - -
02/28/2015 16:31 Wet 36.7F 28F 32F 5 0% 0.00 in 0% 0 mhos 1 None None - -
Date/Time
(MST)
Sf
Temp Chem Water Layer Surface Precipitation
Sf Sub Frz Factor Pct Depth IcePct Cond Salin Type Intens Accum Rate
02/28/2015 16:28 Wet 37.4F 28F 32F 5 0% 0.00 in 0% 0 mhos 1 None None - -
02/28/2015 16:18 Dry 38.7F 28F - - - - - 0 mhos 1 None None - -
02/28/2015 16:14 Dry 39.6F 28F - - - - - 0 mhos 1 None None - -
02/28/2015 16:08 Dry 40.8F 28F - - - - - 0 mhos 1 None None - -
02/28/2015 16:01 Dry 41.4F 28F - - - - - 0 mhos 1 None None - -
02/28/2015 15:58 Dry 42.1F 28F - - - - - 0 mhos 2 None None - -
02/28/2015 15:48 Dry 42.3F 28F - - - - - 0 mhos 2 None None - -
02/28/2015 15:42 Dry 43.3F 28F - - - - - 0 mhos 2 None None - -
02/28/2015 15:38 Dry 43.2F 28F - - - - - 0 mhos 2 None None - -
02/28/2015 15:31 Dry 45.0F 28F - - - - - 0 mhos 2 Yes - - -
02/28/2015 15:28 Dry 45.5F 28F - - - - - 0 mhos 2 None None - -
02/28/2015 15:18 Dry 49.3F 28F - - - - - 0 mhos 2 None None - -
02/28/2015 15:11 Dry 48.9F 28F - - - - - 0 mhos 3 None None - -
02/28/2015 15:08 Dry 45.5F 28F - - - - - 0 mhos 3 None None - -
02/28/2015 15:01 Dry 45.0F 28F - - - - - 0 mhos 3 None None - -
Date/Time
(MST)
Sf
Temp Chem Water Layer Surface Precipitation
Sf Sub Frz Factor Pct Depth IcePct Cond Salin Type Intens Accum Rate
02/28/2015 14:58 Dry 44.6F 28F - - - - - 0 mhos 4 None None - -
02/28/2015 14:47 Dry 46.4F 27F - - - - - 0 mhos 4 None None - -
02/28/2015 14:41 Dry 47.1F 27F - - - - - 0 mhos 5 None None - -
02/28/2015 14:37 Dry 47.5F 27F - - - - - 0 mhos 5 None None - -
02/28/2015 14:31 Dry 48.0F 27F - - - - - 0 mhos 6 Yes - - -
02/28/2015 14:27 Dry 48.4F 27F - - - - - 0 mhos 5 None None - -
02/28/2015 14:17 Dry 49.8F 27F - - - - - 0 mhos 6 Yes - - -
02/28/2015 14:07 Dry 52.7F 27F - - - - - 0 mhos 7 Yes - - -
02/28/2015 14:01 Dry 52.2F 27F - - - - - 0 mhos 9 Yes - - -
02/28/2015 13:57 Dry 53.2F 27F - - - - - 0 mhos 10 Yes - - -
02/28/2015 13:47 Dry 50.4F 27F - - - - - 0 mhos 12 None None - -
02/28/2015 13:37 Dry 52.2F 27F - - - - - 0 mhos 10 None None - -
02/28/2015 13:31 Dry 49.3F 27F - - - - - 0 mhos 12 None None - -
02/28/2015 13:27 Dry 48.7F 27F - - - - - 0 mhos 11 None None - -
02/28/2015 13:17 Dry 50.2F 27F - - - - - 0 mhos 11 Yes - - -
Date/Time
(MST)
Sf
Temp Chem Water Layer Surface Precipitation
Sf Sub Frz Factor Pct Depth IcePct Cond Salin Type Intens Accum Rate
02/28/2015 13:11 Dry 52.9F 27F - - - - - 0 mhos 12 None None - -
02/28/2015 13:07 Dry 51.6F 27F - - - - - 0 mhos 16 None None - -
02/28/2015 13:01 Dry 51.6F 27F - - - - - 0 mhos 20 Yes - - -
02/28/2015 12:57 Dry 50.9F 27F - - - - - 0 mhos 25 None None - -
02/28/2015 12:47 Dry 47.8F 27F - - - - - 1 mhos 43 Yes - - -
02/28/2015 12:41 Dry 44.6F 27F - - - - - 1 mhos 64 None None - -
02/28/2015 12:37 Dry 45.5F 27F - - - - - 1 mhos 75 None None - -
02/28/2015 12:36 Dry 45.5F 27F - - - - - 1 mhos 75 None None - -
02/28/2015 12:27 Dry 47.3F 27F - - - - - 2 mhos 130 None None - -
Change End Date:
Copyright © 1998-2005 Surface Systems, Inc.
All Rights Reserved
Send comments about the data to:
SCAN Web ® is a registered trademark of Surface Systems, Inc.
SCAN Web Version 5.6